sensor_id;sensor_type;location;lat;lon;timestamp;temperature;humidity
47757;SHT35;22147;52.388;13.390;2023-09-19T00:00:58;17.22;88.31
47757;SHT35;22147;52.388;13.390;2023-09-19T00:03:27;17.18;88.31
47757;SHT35;22147;52.388;13.390;2023-09-19T00:05:58;17.18;88.39
47757;SHT35;22147;52.388;13.390;2023-09-19T00:08:28;17.16;88.26
47757;SHT35;22147;52.388;13.390;2023-09-19T00:10:58;17.11;88.25
47757;SHT35;22147;52.388;13.390;2023-09-19T00:13:35;17.16;88.13
47757;SHT35;22147;52.388;13.390;2023-09-19T00:16:11;17.08;88.27
47757;SHT35;22147;52.388;13.390;2023-09-19T00:18:40;17.04;88.46
47757;SHT35;22147;52.388;13.390;2023-09-19T00:21:10;17.02;88.41
47757;SHT35;22147;52.388;13.390;2023-09-19T00:23:40;17.01;88.48
47757;SHT35;22147;52.388;13.390;2023-09-19T00:26:11;17.00;88.41
47757;SHT35;22147;52.388;13.390;2023-09-19T00:28:39;16.97;88.60
47757;SHT35;22147;52.388;13.390;2023-09-19T00:31:10;16.94;88.66
47757;SHT35;22147;52.388;13.390;2023-09-19T00:33:39;16.92;88.63
47757;SHT35;22147;52.388;13.390;2023-09-19T00:36:07;16.92;88.60
47757;SHT35;22147;52.388;13.390;2023-09-19T00:38:36;16.92;88.61
47757;SHT35;22147;52.388;13.390;2023-09-19T00:41:04;16.91;88.59
47757;SHT35;22147;52.388;13.390;2023-09-19T00:43:32;16.91;88.42
47757;SHT35;22147;52.388;13.390;2023-09-19T00:46:04;16.87;88.55
47757;SHT35;22147;52.388;13.390;2023-09-19T00:48:41;16.91;88.51
47757;SHT35;22147;52.388;13.390;2023-09-19T00:51:14;16.88;88.32
47757;SHT35;22147;52.388;13.390;2023-09-19T00:53:44;16.88;88.43
47757;SHT35;22147;52.388;13.390;2023-09-19T00:56:15;16.85;88.38
47757;SHT35;22147;52.388;13.390;2023-09-19T00:58:47;16.84;88.37
47757;SHT35;22147;52.388;13.390;2023-09-19T01:01:19;16.87;88.31
47757;SHT35;22147;52.388;13.390;2023-09-19T01:03:49;16.85;88.39
47757;SHT35;22147;52.388;13.390;2023-09-19T01:06:19;16.85;88.26
47757;SHT35;22147;52.388;13.390;2023-09-19T01:08:50;16.85;88.15
47757;SHT35;22147;52.388;13.390;2023-09-19T01:11:43;16.83;88.25
47757;SHT35;22147;52.388;13.390;2023-09-19T01:14:50;16.83;88.42
47757;SHT35;22147;52.388;13.390;2023-09-19T01:17:34;16.79;88.36
47757;SHT35;22147;52.388;13.390;2023-09-19T01:20:58;16.77;88.36
47757;SHT35;22147;52.388;13.390;2023-09-19T01:29:46;16.69;88.46
47757;SHT35;22147;52.388;13.390;2023-09-19T01:32:21;16.67;88.51
47757;SHT35;22147;52.388;13.390;2023-09-19T01:34:56;16.67;88.52
47757;SHT35;22147;52.388;13.390;2023-09-19T01:37:33;16.70;88.49
47757;SHT35;22147;52.388;13.390;2023-09-19T01:40:18;16.71;88.44
47757;SHT35;22147;52.388;13.390;2023-09-19T01:43:08;16.69;88.54
47757;SHT35;22147;52.388;13.390;2023-09-19T01:46:01;16.73;88.49
47757;SHT35;22147;52.388;13.390;2023-09-19T01:49:15;16.70;88.44
47757;SHT35;22147;52.388;13.390;2023-09-19T01:52:12;16.74;88.34
47757;SHT35;22147;52.388;13.390;2023-09-19T01:55:06;16.73;88.39
47757;SHT35;22147;52.388;13.390;2023-09-19T02:00:42;16.69;88.44
47757;SHT35;22147;52.388;13.390;2023-09-19T02:03:15;16.66;88.62
47757;SHT35;22147;52.388;13.390;2023-09-19T02:05:53;16.61;88.70
47757;SHT35;22147;52.388;13.390;2023-09-19T02:08:24;16.57;88.60
47757;SHT35;22147;52.388;13.390;2023-09-19T02:10:54;16.56;88.62
47757;SHT35;22147;52.388;13.390;2023-09-19T02:13:26;16.55;88.51
47757;SHT35;22147;52.388;13.390;2023-09-19T02:15:59;16.53;88.55
47757;SHT35;22147;52.388;13.390;2023-09-19T02:18:30;16.53;88.47
47757;SHT35;22147;52.388;13.390;2023-09-19T02:21:02;16.49;88.45
47757;SHT35;22147;52.388;13.390;2023-09-19T02:23:33;16.43;88.69
47757;SHT35;22147;52.388;13.390;2023-09-19T02:26:00;16.42;88.79
47757;SHT35;22147;52.388;13.390;2023-09-19T02:28:29;16.37;88.92
47757;SHT35;22147;52.388;13.390;2023-09-19T02:31:00;16.39;88.95
47757;SHT35;22147;52.388;13.390;2023-09-19T02:33:28;16.39;88.74
47757;SHT35;22147;52.388;13.390;2023-09-19T02:36:00;16.36;88.72
47757;SHT35;22147;52.388;13.390;2023-09-19T02:38:28;16.37;88.74
47757;SHT35;22147;52.388;13.390;2023-09-19T02:40:57;16.36;88.82
47757;SHT35;22147;52.388;13.390;2023-09-19T02:43:25;16.34;88.80
47757;SHT35;22147;52.388;13.390;2023-09-19T02:45:53;16.32;88.79
47757;SHT35;22147;52.388;13.390;2023-09-19T02:48:22;16.30;88.66
47757;SHT35;22147;52.388;13.390;2023-09-19T02:50:52;16.28;88.67
47757;SHT35;22147;52.388;13.390;2023-09-19T02:53:22;16.23;88.64
47757;SHT35;22147;52.388;13.390;2023-09-19T02:55:54;16.21;88.56
47757;SHT35;22147;52.388;13.390;2023-09-19T02:58:24;16.16;88.66
47757;SHT35;22147;52.388;13.390;2023-09-19T03:00:55;16.19;89.02
47757;SHT35;22147;52.388;13.390;2023-09-19T03:03:25;16.22;88.90
47757;SHT35;22147;52.388;13.390;2023-09-19T03:05:58;16.19;88.95
47757;SHT35;22147;52.388;13.390;2023-09-19T03:08:29;16.15;88.97
47757;SHT35;22147;52.388;13.390;2023-09-19T03:10:59;16.09;88.96
47757;SHT35;22147;52.388;13.390;2023-09-19T03:13:31;16.08;88.94
47757;SHT35;22147;52.388;13.390;2023-09-19T03:16:02;16.08;89.03
47757;SHT35;22147;52.388;13.390;2023-09-19T03:18:35;16.08;89.10
47757;SHT35;22147;52.388;13.390;2023-09-19T03:21:05;16.09;89.07
47757;SHT35;22147;52.388;13.390;2023-09-19T03:23:34;16.11;89.02
47757;SHT35;22147;52.388;13.390;2023-09-19T03:26:02;16.04;88.91
47757;SHT35;22147;52.388;13.390;2023-09-19T03:28:34;16.04;89.02
47757;SHT35;22147;52.388;13.390;2023-09-19T03:31:05;16.12;89.00
47757;SHT35;22147;52.388;13.390;2023-09-19T03:33:36;16.13;89.07
47757;SHT35;22147;52.388;13.390;2023-09-19T03:36:07;16.11;89.14
47757;SHT35;22147;52.388;13.390;2023-09-19T03:38:38;16.05;89.30
47757;SHT35;22147;52.388;13.390;2023-09-19T03:41:08;16.11;89.37
47757;SHT35;22147;52.388;13.390;2023-09-19T03:43:39;16.11;89.43
47757;SHT35;22147;52.388;13.390;2023-09-19T03:46:10;16.18;89.52
47757;SHT35;22147;52.388;13.390;2023-09-19T03:48:42;16.16;89.44
47757;SHT35;22147;52.388;13.390;2023-09-19T03:51:12;16.33;88.84
47757;SHT35;22147;52.388;13.390;2023-09-19T03:53:42;16.33;88.36
47757;SHT35;22147;52.388;13.390;2023-09-19T03:56:13;16.43;87.60
47757;SHT35;22147;52.388;13.390;2023-09-19T03:58:43;16.40;87.40
47757;SHT35;22147;52.388;13.390;2023-09-19T04:01:11;16.36;87.29
47757;SHT35;22147;52.388;13.390;2023-09-19T04:03:43;16.30;87.26
47757;SHT35;22147;52.388;13.390;2023-09-19T04:06:17;16.32;87.23
47757;SHT35;22147;52.388;13.390;2023-09-19T04:08:46;16.33;87.32
47757;SHT35;22147;52.388;13.390;2023-09-19T04:11:17;16.33;87.13
47757;SHT35;22147;52.388;13.390;2023-09-19T04:13:47;16.34;87.15
47757;SHT35;22147;52.388;13.390;2023-09-19T04:16:18;16.28;87.24
47757;SHT35;22147;52.388;13.390;2023-09-19T04:18:48;16.23;87.33
47757;SHT35;22147;52.388;13.390;2023-09-19T04:21:18;16.18;87.50
47757;SHT35;22147;52.388;13.390;2023-09-19T04:23:48;16.19;87.72
47757;SHT35;22147;52.388;13.390;2023-09-19T04:26:18;16.21;87.41
47757;SHT35;22147;52.388;13.390;2023-09-19T04:28:48;16.12;87.29
47757;SHT35;22147;52.388;13.390;2023-09-19T04:31:18;16.05;87.28
47757;SHT35;22147;52.388;13.390;2023-09-19T04:33:50;16.06;87.41
47757;SHT35;22147;52.388;13.390;2023-09-19T04:36:20;16.11;86.87
47757;SHT35;22147;52.388;13.390;2023-09-19T04:39:04;16.15;86.46
47757;SHT35;22147;52.388;13.390;2023-09-19T04:41:35;16.18;86.22
47757;SHT35;22147;52.388;13.390;2023-09-19T04:44:08;16.18;85.88
47757;SHT35;22147;52.388;13.390;2023-09-19T04:46:38;16.13;85.71
47757;SHT35;22147;52.388;13.390;2023-09-19T04:49:09;16.04;85.95
47757;SHT35;22147;52.388;13.390;2023-09-19T04:51:40;16.04;85.62
47757;SHT35;22147;52.388;13.390;2023-09-19T04:54:10;16.04;85.22
47757;SHT35;22147;52.388;13.390;2023-09-19T04:56:40;16.02;85.30
47757;SHT35;22147;52.388;13.390;2023-09-19T04:59:10;16.00;84.99
47757;SHT35;22147;52.388;13.390;2023-09-19T05:01:41;15.98;85.08
47757;SHT35;22147;52.388;13.390;2023-09-19T05:04:11;15.97;84.60
47757;SHT35;22147;52.388;13.390;2023-09-19T05:06:41;15.92;84.69
47757;SHT35;22147;52.388;13.390;2023-09-19T05:09:13;15.98;84.54
47757;SHT35;22147;52.388;13.390;2023-09-19T05:11:41;15.90;84.26
47757;SHT35;22147;52.388;13.390;2023-09-19T05:14:10;15.94;84.04
47757;SHT35;22147;52.388;13.390;2023-09-19T05:16:39;15.92;83.81
47757;SHT35;22147;52.388;13.390;2023-09-19T05:19:10;15.95;83.58
47757;SHT35;22147;52.388;13.390;2023-09-19T05:21:42;15.92;83.66
47757;SHT35;22147;52.388;13.390;2023-09-19T05:24:12;15.90;83.50
47757;SHT35;22147;52.388;13.390;2023-09-19T05:26:44;15.94;83.48
47757;SHT35;22147;52.388;13.390;2023-09-19T05:29:15;15.90;83.18
47757;SHT35;22147;52.388;13.390;2023-09-19T05:31:45;15.85;83.36
47757;SHT35;22147;52.388;13.390;2023-09-19T05:34:16;15.78;83.58
47757;SHT35;22147;52.388;13.390;2023-09-19T05:36:46;15.77;83.75
47757;SHT35;22147;52.388;13.390;2023-09-19T05:39:18;15.81;82.70
47757;SHT35;22147;52.388;13.390;2023-09-19T05:41:49;15.84;82.80
47757;SHT35;22147;52.388;13.390;2023-09-19T05:44:19;15.78;83.05
47757;SHT35;22147;52.388;13.390;2023-09-19T05:46:49;15.79;82.71
47757;SHT35;22147;52.388;13.390;2023-09-19T05:49:19;15.78;82.80
47757;SHT35;22147;52.388;13.390;2023-09-19T05:51:51;15.75;82.81
47757;SHT35;22147;52.388;13.390;2023-09-19T05:54:26;15.73;82.97
47757;SHT35;22147;52.388;13.390;2023-09-19T05:56:55;15.71;83.25
47757;SHT35;22147;52.388;13.390;2023-09-19T05:59:23;15.78;82.71
47757;SHT35;22147;52.388;13.390;2023-09-19T06:01:51;15.77;82.97
47757;SHT35;22147;52.388;13.390;2023-09-19T06:04:20;15.78;82.88
47757;SHT35;22147;52.388;13.390;2023-09-19T06:06:48;15.82;83.00
47757;SHT35;22147;52.388;13.390;2023-09-19T06:09:17;15.82;82.74
47757;SHT35;22147;52.388;13.390;2023-09-19T06:11:45;15.90;81.87
47757;SHT35;22147;52.388;13.390;2023-09-19T06:14:14;15.94;82.23
47757;SHT35;22147;52.388;13.390;2023-09-19T06:16:42;15.94;82.01
47757;SHT35;22147;52.388;13.390;2023-09-19T06:19:11;16.01;82.10
47757;SHT35;22147;52.388;13.390;2023-09-19T06:21:39;16.09;81.84
47757;SHT35;22147;52.388;13.390;2023-09-19T06:24:07;16.18;81.45
47757;SHT35;22147;52.388;13.390;2023-09-19T06:26:36;16.25;81.08
47757;SHT35;22147;52.388;13.390;2023-09-19T06:29:04;16.30;81.24
47757;SHT35;22147;52.388;13.390;2023-09-19T06:31:39;16.43;80.01
47757;SHT35;22147;52.388;13.390;2023-09-19T06:34:09;16.43;80.07
47757;SHT35;22147;52.388;13.390;2023-09-19T06:36:39;16.47;80.13
47757;SHT35;22147;52.388;13.390;2023-09-19T06:39:10;16.64;79.80
47757;SHT35;22147;52.388;13.390;2023-09-19T06:41:41;16.79;78.95
47757;SHT35;22147;52.388;13.390;2023-09-19T06:44:11;16.91;78.87
47757;SHT35;22147;52.388;13.390;2023-09-19T06:46:41;17.07;78.14
47757;SHT35;22147;52.388;13.390;2023-09-19T06:49:13;17.24;78.15
47757;SHT35;22147;52.388;13.390;2023-09-19T06:51:45;17.48;76.10
47757;SHT35;22147;52.388;13.390;2023-09-19T06:54:16;17.63;75.20
47757;SHT35;22147;52.388;13.390;2023-09-19T06:56:45;17.69;75.94
47757;SHT35;22147;52.388;13.390;2023-09-19T06:59:13;17.87;74.86
47757;SHT35;22147;52.388;13.390;2023-09-19T07:01:42;18.00;74.36
47757;SHT35;22147;52.388;13.390;2023-09-19T07:04:13;18.22;75.22
47757;SHT35;22147;52.388;13.390;2023-09-19T07:06:41;18.62;72.70
47757;SHT35;22147;52.388;13.390;2023-09-19T07:09:10;18.96;72.21
47757;SHT35;22147;52.388;13.390;2023-09-19T07:11:38;19.24;70.16
47757;SHT35;22147;52.388;13.390;2023-09-19T07:14:07;19.47;68.49
47757;SHT35;22147;52.388;13.390;2023-09-19T07:16:35;19.65;69.33
47757;SHT35;22147;52.388;13.390;2023-09-19T07:19:06;19.92;67.33
47757;SHT35;22147;52.388;13.390;2023-09-19T07:21:36;20.23;67.39
47757;SHT35;22147;52.388;13.390;2023-09-19T07:24:08;20.54;65.29
47757;SHT35;22147;52.388;13.390;2023-09-19T07:26:38;20.36;64.92
47757;SHT35;22147;52.388;13.390;2023-09-19T07:29:09;20.13;65.69
47757;SHT35;22147;52.388;13.390;2023-09-19T07:31:40;20.09;65.95
47757;SHT35;22147;52.388;13.390;2023-09-19T07:34:10;19.94;66.19
47757;SHT35;22147;52.388;13.390;2023-09-19T07:36:40;19.85;66.34
47757;SHT35;22147;52.388;13.390;2023-09-19T07:39:12;19.81;66.88
47757;SHT35;22147;52.388;13.390;2023-09-19T07:41:50;19.66;65.40
47757;SHT35;22147;52.388;13.390;2023-09-19T07:44:20;19.54;65.33
47757;SHT35;22147;52.388;13.390;2023-09-19T07:46:50;19.51;64.82
47757;SHT35;22147;52.388;13.390;2023-09-19T07:49:21;19.52;64.12
47757;SHT35;22147;52.388;13.390;2023-09-19T07:51:51;19.37;64.18
47757;SHT35;22147;52.388;13.390;2023-09-19T07:54:22;19.54;64.35
47757;SHT35;22147;52.388;13.390;2023-09-19T07:56:52;19.58;64.36
47757;SHT35;22147;52.388;13.390;2023-09-19T07:59:23;19.69;63.14
47757;SHT35;22147;52.388;13.390;2023-09-19T08:01:54;19.68;62.35
47757;SHT35;22147;52.388;13.390;2023-09-19T08:04:24;19.83;62.61
47757;SHT35;22147;52.388;13.390;2023-09-19T08:06:56;19.82;61.40
47757;SHT35;22147;52.388;13.390;2023-09-19T08:09:28;19.69;62.33
47757;SHT35;22147;52.388;13.390;2023-09-19T08:11:59;19.52;62.16
47757;SHT35;22147;52.388;13.390;2023-09-19T08:14:32;19.61;62.38
47757;SHT35;22147;52.388;13.390;2023-09-19T08:17:02;19.55;62.35
47757;SHT35;22147;52.388;13.390;2023-09-19T08:19:34;19.73;62.31
47757;SHT35;22147;52.388;13.390;2023-09-19T08:22:02;19.99;62.08
47757;SHT35;22147;52.388;13.390;2023-09-19T08:24:32;20.00;61.89
47757;SHT35;22147;52.388;13.390;2023-09-19T08:27:04;19.86;62.58
47757;SHT35;22147;52.388;13.390;2023-09-19T08:29:35;19.65;62.01
47757;SHT35;22147;52.388;13.390;2023-09-19T08:32:05;19.50;62.07
47757;SHT35;22147;52.388;13.390;2023-09-19T08:34:37;19.42;62.24
47757;SHT35;22147;52.388;13.390;2023-09-19T08:37:08;19.35;62.33
47757;SHT35;22147;52.388;13.390;2023-09-19T08:39:38;19.30;63.27
47757;SHT35;22147;52.388;13.390;2023-09-19T08:42:08;19.21;61.95
47757;SHT35;22147;52.388;13.390;2023-09-19T08:44:40;19.07;61.87
47757;SHT35;22147;52.388;13.390;2023-09-19T08:47:15;19.27;61.58
47757;SHT35;22147;52.388;13.390;2023-09-19T08:50:19;19.72;61.50
47757;SHT35;22147;52.388;13.390;2023-09-19T08:53:00;20.06;61.37
47757;SHT35;22147;52.388;13.390;2023-09-19T08:55:32;20.21;59.56
47757;SHT35;22147;52.388;13.390;2023-09-19T08:58:12;20.36;59.30
47757;SHT35;22147;52.388;13.390;2023-09-19T09:00:48;20.20;59.23
47757;SHT35;22147;52.388;13.390;2023-09-19T09:03:19;20.05;57.88
47757;SHT35;22147;52.388;13.390;2023-09-19T09:05:51;19.86;58.16
47757;SHT35;22147;52.388;13.390;2023-09-19T09:08:22;19.85;56.77
47757;SHT35;22147;52.388;13.390;2023-09-19T09:10:53;20.02;58.50
47757;SHT35;22147;52.388;13.390;2023-09-19T09:13:24;20.30;57.68
47757;SHT35;22147;52.388;13.390;2023-09-19T09:15:56;20.21;54.95
47757;SHT35;22147;52.388;13.390;2023-09-19T09:18:27;20.20;56.82
47757;SHT35;22147;52.388;13.390;2023-09-19T09:20:56;20.19;54.76
47757;SHT35;22147;52.388;13.390;2023-09-19T09:23:27;20.17;55.42
47757;SHT35;22147;52.388;13.390;2023-09-19T09:26:00;20.26;53.48
47757;SHT35;22147;52.388;13.390;2023-09-19T09:28:36;20.19;54.46
47757;SHT35;22147;52.388;13.390;2023-09-19T09:31:25;20.24;56.43
47757;SHT35;22147;52.388;13.390;2023-09-19T09:33:55;20.54;53.90
47757;SHT35;22147;52.388;13.390;2023-09-19T09:36:38;20.43;53.31
47757;SHT35;22147;52.388;13.390;2023-09-19T09:39:10;20.33;53.16
47757;SHT35;22147;52.388;13.390;2023-09-19T09:41:48;20.13;53.81
47757;SHT35;22147;52.388;13.390;2023-09-19T09:44:19;20.09;55.00
47757;SHT35;22147;52.388;13.390;2023-09-19T09:46:49;20.55;55.04
47757;SHT35;22147;52.388;13.390;2023-09-19T09:49:26;20.82;53.33
47757;SHT35;22147;52.388;13.390;2023-09-19T09:52:07;20.88;52.41
47757;SHT35;22147;52.388;13.390;2023-09-19T09:55:03;20.79;52.38
47757;SHT35;22147;52.388;13.390;2023-09-19T09:57:37;20.81;53.18
47757;SHT35;22147;52.388;13.390;2023-09-19T10:00:12;20.95;52.18
47757;SHT35;22147;52.388;13.390;2023-09-19T10:02:43;21.09;53.79
47757;SHT35;22147;52.388;13.390;2023-09-19T10:05:20;21.09;52.41
47757;SHT35;22147;52.388;13.390;2023-09-19T10:07:52;20.74;53.57
47757;SHT35;22147;52.388;13.390;2023-09-19T10:10:41;20.45;53.02
47757;SHT35;22147;52.388;13.390;2023-09-19T10:13:13;20.36;52.80
47757;SHT35;22147;52.388;13.390;2023-09-19T10:15:50;20.36;53.57
47757;SHT35;22147;52.388;13.390;2023-09-19T10:18:26;20.38;53.95
47757;SHT35;22147;52.388;13.390;2023-09-19T10:21:01;20.26;54.89
47757;SHT35;22147;52.388;13.390;2023-09-19T10:23:35;19.96;54.84
47757;SHT35;22147;52.388;13.390;2023-09-19T10:26:08;19.72;55.25
47757;SHT35;22147;52.388;13.390;2023-09-19T10:28:40;19.72;54.39
47757;SHT35;22147;52.388;13.390;2023-09-19T10:31:12;19.96;54.96
47757;SHT35;22147;52.388;13.390;2023-09-19T10:33:47;20.40;53.71
47757;SHT35;22147;52.388;13.390;2023-09-19T10:36:24;20.79;52.56
47757;SHT35;22147;52.388;13.390;2023-09-19T10:39:01;21.14;48.03
47757;SHT35;22147;52.388;13.390;2023-09-19T10:41:35;21.22;47.37
47757;SHT35;22147;52.388;13.390;2023-09-19T10:44:07;21.18;46.80
47757;SHT35;22147;52.388;13.390;2023-09-19T10:46:38;21.14;47.92
47757;SHT35;22147;52.388;13.390;2023-09-19T10:49:07;21.05;48.09
47757;SHT35;22147;52.388;13.390;2023-09-19T10:51:44;21.11;49.62
47757;SHT35;22147;52.388;13.390;2023-09-19T10:54:22;21.22;48.62
47757;SHT35;22147;52.388;13.390;2023-09-19T10:56:57;21.29;44.99
47757;SHT35;22147;52.388;13.390;2023-09-19T10:59:30;21.22;48.47
47757;SHT35;22147;52.388;13.390;2023-09-19T11:02:18;21.32;45.67
47757;SHT35;22147;52.388;13.390;2023-09-19T11:04:50;21.08;45.95
47757;SHT35;22147;52.388;13.390;2023-09-19T11:07:20;20.87;47.11
47757;SHT35;22147;52.388;13.390;2023-09-19T11:09:54;20.67;47.18
47757;SHT35;22147;52.388;13.390;2023-09-19T11:12:48;20.38;48.10
47757;SHT35;22147;52.388;13.390;2023-09-19T11:27:12;20.94;48.75
47757;SHT35;22147;52.388;13.390;2023-09-19T11:29:44;20.92;48.58
47757;SHT35;22147;52.388;13.390;2023-09-19T11:32:12;20.84;49.13
47757;SHT35;22147;52.388;13.390;2023-09-19T11:34:46;20.74;49.38
47757;SHT35;22147;52.388;13.390;2023-09-19T11:40:09;20.99;47.55
47757;SHT35;22147;52.388;13.390;2023-09-19T11:42:48;21.20;49.34
47757;SHT35;22147;52.388;13.390;2023-09-19T11:48:20;21.62;47.88
47757;SHT35;22147;52.388;13.390;2023-09-19T11:50:50;21.47;45.89
47757;SHT35;22147;52.388;13.390;2023-09-19T11:53:24;21.32;47.70
47757;SHT35;22147;52.388;13.390;2023-09-19T11:56:04;21.23;49.25
47757;SHT35;22147;52.388;13.390;2023-09-19T11:58:38;21.25;47.65
47757;SHT35;22147;52.388;13.390;2023-09-19T12:01:13;21.27;48.82
47757;SHT35;22147;52.388;13.390;2023-09-19T12:03:53;21.32;47.72
47757;SHT35;22147;52.388;13.390;2023-09-19T12:06:28;21.44;47.78
47757;SHT35;22147;52.388;13.390;2023-09-19T12:09:00;21.35;46.41
47757;SHT35;22147;52.388;13.390;2023-09-19T12:11:31;21.32;48.72
47757;SHT35;22147;52.388;13.390;2023-09-19T12:14:06;21.46;47.32
47757;SHT35;22147;52.388;13.390;2023-09-19T12:16:37;21.46;46.09
47757;SHT35;22147;52.388;13.390;2023-09-19T12:19:22;21.47;47.49
47757;SHT35;22147;52.388;13.390;2023-09-19T12:22:02;21.53;46.29
47757;SHT35;22147;52.388;13.390;2023-09-19T12:24:35;21.56;47.83
47757;SHT35;22147;52.388;13.390;2023-09-19T12:27:08;21.54;47.29
47757;SHT35;22147;52.388;13.390;2023-09-19T12:29:48;21.51;46.40
47757;SHT35;22147;52.388;13.390;2023-09-19T12:32:35;21.44;47.76
47757;SHT35;22147;52.388;13.390;2023-09-19T12:35:07;21.43;47.76
47757;SHT35;22147;52.388;13.390;2023-09-19T12:37:44;21.50;46.39
47757;SHT35;22147;52.388;13.390;2023-09-19T12:40:17;21.36;46.52
47757;SHT35;22147;52.388;13.390;2023-09-19T12:42:48;21.39;47.27
47757;SHT35;22147;52.388;13.390;2023-09-19T12:45:17;21.57;46.86
47757;SHT35;22147;52.388;13.390;2023-09-19T12:48:26;21.70;47.27
47757;SHT35;22147;52.388;13.390;2023-09-19T12:51:08;21.59;46.85
47757;SHT35;22147;52.388;13.390;2023-09-19T12:53:46;21.60;48.50
47757;SHT35;22147;52.388;13.390;2023-09-19T12:56:17;21.67;47.20
47757;SHT35;22147;52.388;13.390;2023-09-19T12:58:58;21.73;46.43
47757;SHT35;22147;52.388;13.390;2023-09-19T13:01:33;21.63;46.07
47757;SHT35;22147;52.388;13.390;2023-09-19T13:04:19;21.60;48.10
47757;SHT35;22147;52.388;13.390;2023-09-19T13:06:52;21.60;46.43
47757;SHT35;22147;52.388;13.390;2023-09-19T13:09:23;21.53;47.27
47757;SHT35;22147;52.388;13.390;2023-09-19T13:12:36;21.56;47.05
47757;SHT35;22147;52.388;13.390;2023-09-19T13:15:14;21.53;47.60
47757;SHT35;22147;52.388;13.390;2023-09-19T13:17:47;21.70;46.19
47757;SHT35;22147;52.388;13.390;2023-09-19T13:20:26;21.81;46.25
47757;SHT35;22147;52.388;13.390;2023-09-19T13:23:02;21.94;45.71
47757;SHT35;22147;52.388;13.390;2023-09-19T13:25:40;21.92;43.43
47757;SHT35;22147;52.388;13.390;2023-09-19T13:28:10;21.74;44.02
47757;SHT35;22147;52.388;13.390;2023-09-19T13:30:40;21.57;45.29
47757;SHT35;22147;52.388;13.390;2023-09-19T13:33:13;21.54;44.67
47757;SHT35;22147;52.388;13.390;2023-09-19T13:35:48;21.43;44.61
47757;SHT35;22147;52.388;13.390;2023-09-19T13:38:17;21.40;45.42
47757;SHT35;22147;52.388;13.390;2023-09-19T13:40:48;21.49;44.89
47757;SHT35;22147;52.388;13.390;2023-09-19T13:43:19;21.54;46.46
47757;SHT35;22147;52.388;13.390;2023-09-19T13:45:52;21.59;45.70
47757;SHT35;22147;52.388;13.390;2023-09-19T13:48:23;21.64;45.74
47757;SHT35;22147;52.388;13.390;2023-09-19T13:50:55;21.64;47.21
47757;SHT35;22147;52.388;13.390;2023-09-19T13:53:25;21.73;45.45
47757;SHT35;22147;52.388;13.390;2023-09-19T13:55:56;21.73;45.86
47757;SHT35;22147;52.388;13.390;2023-09-19T13:58:26;21.70;44.20
47757;SHT35;22147;52.388;13.390;2023-09-19T14:00:57;21.70;45.54
47757;SHT35;22147;52.388;13.390;2023-09-19T14:03:28;21.75;46.17
47757;SHT35;22147;52.388;13.390;2023-09-19T14:05:59;21.70;44.81
47757;SHT35;22147;52.388;13.390;2023-09-19T14:08:29;21.67;45.66
47757;SHT35;22147;52.388;13.390;2023-09-19T14:11:01;21.62;46.45
47757;SHT35;22147;52.388;13.390;2023-09-19T14:13:35;21.62;46.11
47757;SHT35;22147;52.388;13.390;2023-09-19T14:16:08;21.67;45.47
47757;SHT35;22147;52.388;13.390;2023-09-19T14:18:41;21.60;46.41
47757;SHT35;22147;52.388;13.390;2023-09-19T14:21:12;21.54;47.74
47757;SHT35;22147;52.388;13.390;2023-09-19T14:23:42;21.62;48.22
47757;SHT35;22147;52.388;13.390;2023-09-19T14:26:11;21.74;45.74
47757;SHT35;22147;52.388;13.390;2023-09-19T14:28:39;21.66;47.42
47757;SHT35;22147;52.388;13.390;2023-09-19T14:31:10;21.69;46.74
47757;SHT35;22147;52.388;13.390;2023-09-19T14:33:39;21.77;49.12
47757;SHT35;22147;52.388;13.390;2023-09-19T14:36:09;21.84;47.71
47757;SHT35;22147;52.388;13.390;2023-09-19T14:38:40;21.74;46.52
47757;SHT35;22147;52.388;13.390;2023-09-19T14:41:11;21.64;48.43
47757;SHT35;22147;52.388;13.390;2023-09-19T14:43:41;21.60;47.92
47757;SHT35;22147;52.388;13.390;2023-09-19T14:46:11;21.59;46.62
47757;SHT35;22147;52.388;13.390;2023-09-19T14:48:41;21.53;46.48
47757;SHT35;22147;52.388;13.390;2023-09-19T14:51:11;21.42;45.27
47757;SHT35;22147;52.388;13.390;2023-09-19T14:53:40;21.40;45.49
47757;SHT35;22147;52.388;13.390;2023-09-19T14:56:11;21.27;46.11
47757;SHT35;22147;52.388;13.390;2023-09-19T14:58:41;21.33;45.81
47757;SHT35;22147;52.388;13.390;2023-09-19T15:01:12;21.26;47.65
47757;SHT35;22147;52.388;13.390;2023-09-19T15:03:42;21.19;46.33
47757;SHT35;22147;52.388;13.390;2023-09-19T15:06:13;21.16;47.04
47757;SHT35;22147;52.388;13.390;2023-09-19T15:08:47;21.19;47.62
47757;SHT35;22147;52.388;13.390;2023-09-19T15:11:18;21.16;47.93
47757;SHT35;22147;52.388;13.390;2023-09-19T15:13:52;21.16;48.08
47757;SHT35;22147;52.388;13.390;2023-09-19T15:16:23;21.19;49.39
47757;SHT35;22147;52.388;13.390;2023-09-19T15:18:53;21.20;47.85
47757;SHT35;22147;52.388;13.390;2023-09-19T15:21:24;21.19;48.43
47757;SHT35;22147;52.388;13.390;2023-09-19T15:23:54;21.16;48.37
47757;SHT35;22147;52.388;13.390;2023-09-19T15:26:24;21.05;47.92
47757;SHT35;22147;52.388;13.390;2023-09-19T15:28:54;20.98;49.24
47757;SHT35;22147;52.388;13.390;2023-09-19T15:31:24;20.96;48.89
47757;SHT35;22147;52.388;13.390;2023-09-19T15:33:53;20.99;48.25
47757;SHT35;22147;52.388;13.390;2023-09-19T15:36:23;20.94;48.12
47757;SHT35;22147;52.388;13.390;2023-09-19T15:39:07;20.91;48.83
47757;SHT35;22147;52.388;13.390;2023-09-19T15:41:45;20.88;49.42
47757;SHT35;22147;52.388;13.390;2023-09-19T15:44:19;21.00;49.01
47757;SHT35;22147;52.388;13.390;2023-09-19T15:46:50;21.00;48.41
47757;SHT35;22147;52.388;13.390;2023-09-19T15:49:18;20.99;50.33
47757;SHT35;22147;52.388;13.390;2023-09-19T15:51:48;20.95;50.18
47757;SHT35;22147;52.388;13.390;2023-09-19T15:54:16;20.91;49.20
47757;SHT35;22147;52.388;13.390;2023-09-19T15:56:47;20.82;50.15
47757;SHT35;22147;52.388;13.390;2023-09-19T15:59:16;20.79;49.29
47757;SHT35;22147;52.388;13.390;2023-09-19T16:01:46;20.68;50.97
47757;SHT35;22147;52.388;13.390;2023-09-19T16:04:16;20.64;49.48
47757;SHT35;22147;52.388;13.390;2023-09-19T16:06:46;20.51;50.41
47757;SHT35;22147;52.388;13.390;2023-09-19T16:09:16;20.45;50.49
47757;SHT35;22147;52.388;13.390;2023-09-19T16:11:46;20.37;49.36
47757;SHT35;22147;52.388;13.390;2023-09-19T16:14:16;20.30;50.59
47757;SHT35;22147;52.388;13.390;2023-09-19T16:16:47;20.26;50.32